sensor_id;sensor_type;location;lat;lon;timestamp;pressure;altitude;pressure_sealevel;temperature;humidity
64614;BME280;51025;37.772;-122.432;2024-01-30T00:00:01;101245.32;;;20.86;23.86
64614;BME280;51025;37.772;-122.432;2024-01-30T00:02:31;101238.72;;;21.68;23.71
64614;BME280;51025;37.772;-122.432;2024-01-30T00:05:00;101232.34;;;21.13;23.70
64614;BME280;51025;37.772;-122.432;2024-01-30T00:07:28;101235.27;;;21.10;23.70
64614;BME280;51025;37.772;-122.432;2024-01-30T00:09:56;101240.28;;;21.10;23.58
64614;BME280;51025;37.772;-122.432;2024-01-30T00:12:24;101244.39;;;21.55;23.30
64614;BME280;51025;37.772;-122.432;2024-01-30T00:14:52;101249.43;;;21.28;23.39
64614;BME280;51025;37.772;-122.432;2024-01-30T00:17:21;101254.27;;;21.14;23.45
64614;BME280;51025;37.772;-122.432;2024-01-30T00:19:49;101257.97;;;21.20;23.44
64614;BME280;51025;37.772;-122.432;2024-01-30T00:22:17;101257.47;;;21.39;23.33
64614;BME280;51025;37.772;-122.432;2024-01-30T00:24:45;101262.94;;;20.94;23.48
64614;BME280;51025;37.772;-122.432;2024-01-30T00:27:13;101266.91;;;21.14;23.36
64614;BME280;51025;37.772;-122.432;2024-01-30T00:29:41;101267.77;;;21.01;23.38
64614;BME280;51025;37.772;-122.432;2024-01-30T00:32:09;101272.36;;;21.27;23.26
64614;BME280;51025;37.772;-122.432;2024-01-30T00:34:37;101271.24;;;21.12;23.28
64614;BME280;51025;37.772;-122.432;2024-01-30T00:37:05;101272.26;;;21.32;23.35
64614;BME280;51025;37.772;-122.432;2024-01-30T00:39:33;101276.61;;;20.81;23.46
64614;BME280;51025;37.772;-122.432;2024-01-30T00:42:01;101277.13;;;21.33;23.35
64614;BME280;51025;37.772;-122.432;2024-01-30T00:44:30;101283.14;;;20.89;23.40
64614;BME280;51025;37.772;-122.432;2024-01-30T00:46:59;101286.21;;;20.78;23.28
64614;BME280;51025;37.772;-122.432;2024-01-30T00:49:26;101290.48;;;20.92;23.56
64614;BME280;51025;37.772;-122.432;2024-01-30T00:51:54;101290.06;;;20.52;23.61
64614;BME280;51025;37.772;-122.432;2024-01-30T00:54:22;101294.41;;;21.35;23.46
64614;BME280;51025;37.772;-122.432;2024-01-30T00:56:50;101299.36;;;20.71;23.83
64614;BME280;51025;37.772;-122.432;2024-01-30T00:59:18;101302.13;;;20.92;23.60
64614;BME280;51025;37.772;-122.432;2024-01-30T01:01:46;101297.93;;;21.16;23.74
64614;BME280;51025;37.772;-122.432;2024-01-30T01:04:14;101304.20;;;20.41;23.72
64614;BME280;51025;37.772;-122.432;2024-01-30T01:06:42;101306.03;;;20.65;23.69
64614;BME280;51025;37.772;-122.432;2024-01-30T01:09:10;101300.89;;;21.17;23.54
64614;BME280;51025;37.772;-122.432;2024-01-30T01:11:39;101301.24;;;20.64;23.31
64614;BME280;51025;37.772;-122.432;2024-01-30T01:14:07;101297.28;;;21.27;23.39
64614;BME280;51025;37.772;-122.432;2024-01-30T01:16:36;101293.01;;;21.15;23.50
64614;BME280;51025;37.772;-122.432;2024-01-30T01:19:04;101294.69;;;21.04;23.55
64614;BME280;51025;37.772;-122.432;2024-01-30T01:21:32;101284.01;;;21.03;23.55
64614;BME280;51025;37.772;-122.432;2024-01-30T01:24:01;101284.15;;;21.34;23.38
64614;BME280;51025;37.772;-122.432;2024-01-30T01:26:30;101278.91;;;21.29;23.35
64614;BME280;51025;37.772;-122.432;2024-01-30T01:28:58;101269.09;;;21.09;23.47
64614;BME280;51025;37.772;-122.432;2024-01-30T01:31:26;101264.95;;;20.33;23.50
64614;BME280;51025;37.772;-122.432;2024-01-30T01:33:53;101259.18;;;21.10;23.52
64614;BME280;51025;37.772;-122.432;2024-01-30T01:36:21;101255.07;;;21.24;23.24
64614;BME280;51025;37.772;-122.432;2024-01-30T01:38:49;101249.28;;;20.02;23.40
64614;BME280;51025;37.772;-122.432;2024-01-30T01:41:17;101247.83;;;20.84;23.64
64614;BME280;51025;37.772;-122.432;2024-01-30T01:43:45;101244.34;;;19.99;23.74
64614;BME280;51025;37.772;-122.432;2024-01-30T01:46:13;101241.35;;;21.29;23.35
64614;BME280;51025;37.772;-122.432;2024-01-30T01:48:42;101230.59;;;19.44;24.27
64614;BME280;51025;37.772;-122.432;2024-01-30T01:51:11;101221.28;;;19.93;24.50
64614;BME280;51025;37.772;-122.432;2024-01-30T01:53:39;101217.86;;;20.71;23.96
64614;BME280;51025;37.772;-122.432;2024-01-30T01:56:08;101216.56;;;20.86;23.96
64614;BME280;51025;37.772;-122.432;2024-01-30T01:58:38;101213.07;;;19.79;24.29
64614;BME280;51025;37.772;-122.432;2024-01-30T02:01:06;101220.54;;;20.27;24.18
64614;BME280;51025;37.772;-122.432;2024-01-30T02:03:35;101225.15;;;19.94;24.11
64614;BME280;51025;37.772;-122.432;2024-01-30T02:06:03;101232.37;;;20.73;24.04
64614;BME280;51025;37.772;-122.432;2024-01-30T02:08:32;101235.71;;;20.49;24.29
64614;BME280;51025;37.772;-122.432;2024-01-30T02:11:01;101241.91;;;21.03;24.04
64614;BME280;51025;37.772;-122.432;2024-01-30T02:13:29;101248.51;;;20.84;24.49
64614;BME280;51025;37.772;-122.432;2024-01-30T02:15:58;101257.46;;;20.15;24.73
64614;BME280;51025;37.772;-122.432;2024-01-30T02:18:26;101267.76;;;20.58;24.43
64614;BME280;51025;37.772;-122.432;2024-01-30T02:20:57;101274.40;;;20.76;24.35
64614;BME280;51025;37.772;-122.432;2024-01-30T02:23:26;101274.01;;;20.63;24.47
64614;BME280;51025;37.772;-122.432;2024-01-30T02:25:55;101276.74;;;20.55;24.61
64614;BME280;51025;37.772;-122.432;2024-01-30T02:28:23;101278.08;;;20.43;24.67
64614;BME280;51025;37.772;-122.432;2024-01-30T02:30:51;101277.30;;;20.04;24.98
64614;BME280;51025;37.772;-122.432;2024-01-30T02:33:20;101278.94;;;20.23;24.83
64614;BME280;51025;37.772;-122.432;2024-01-30T02:35:48;101281.15;;;20.25;24.88
64614;BME280;51025;37.772;-122.432;2024-01-30T02:38:16;101284.71;;;20.25;24.61
64614;BME280;51025;37.772;-122.432;2024-01-30T02:40:44;101288.39;;;20.64;24.58
64614;BME280;51025;37.772;-122.432;2024-01-30T02:43:13;101287.86;;;20.27;24.85
64614;BME280;51025;37.772;-122.432;2024-01-30T02:45:41;101291.77;;;20.36;24.81
64614;BME280;51025;37.772;-122.432;2024-01-30T02:48:09;101298.96;;;20.48;24.68
64614;BME280;51025;37.772;-122.432;2024-01-30T02:50:37;101298.35;;;20.25;25.00
64614;BME280;51025;37.772;-122.432;2024-01-30T02:53:06;101296.31;;;20.57;25.00
64614;BME280;51025;37.772;-122.432;2024-01-30T02:55:35;101297.64;;;20.30;25.08
64614;BME280;51025;37.772;-122.432;2024-01-30T02:58:04;101301.96;;;20.89;25.34
64614;BME280;51025;37.772;-122.432;2024-01-30T03:00:32;101301.45;;;20.28;25.26
64614;BME280;51025;37.772;-122.432;2024-01-30T03:03:01;101300.81;;;20.92;25.22
64614;BME280;51025;37.772;-122.432;2024-01-30T03:05:29;101297.75;;;21.34;25.01
64614;BME280;51025;37.772;-122.432;2024-01-30T03:07:58;101297.96;;;20.99;25.38
64614;BME280;51025;37.772;-122.432;2024-01-30T03:10:26;101297.55;;;21.53;25.05
64614;BME280;51025;37.772;-122.432;2024-01-30T03:12:54;101300.53;;;20.99;25.64
64614;BME280;51025;37.772;-122.432;2024-01-30T03:15:22;101301.70;;;20.59;25.98
64614;BME280;51025;37.772;-122.432;2024-01-30T03:17:51;101305.48;;;20.52;26.11
64614;BME280;51025;37.772;-122.432;2024-01-30T03:20:19;101305.44;;;20.91;25.87
64614;BME280;51025;37.772;-122.432;2024-01-30T03:22:47;101302.88;;;21.01;25.75
64614;BME280;51025;37.772;-122.432;2024-01-30T03:25:16;101296.83;;;21.06;25.66
64614;BME280;51025;37.772;-122.432;2024-01-30T03:27:44;101297.83;;;20.87;25.75
64614;BME280;51025;37.772;-122.432;2024-01-30T03:30:12;101298.03;;;20.89;25.75
64614;BME280;51025;37.772;-122.432;2024-01-30T03:32:41;101298.21;;;20.81;25.76
64614;BME280;51025;37.772;-122.432;2024-01-30T03:35:10;101301.35;;;20.34;26.11
64614;BME280;51025;37.772;-122.432;2024-01-30T03:37:38;101305.89;;;20.83;25.76
64614;BME280;51025;37.772;-122.432;2024-01-30T03:40:07;101309.57;;;20.72;25.84
64614;BME280;51025;37.772;-122.432;2024-01-30T03:42:36;101309.95;;;20.41;26.13
64614;BME280;51025;37.772;-122.432;2024-01-30T03:45:05;101310.34;;;20.46;26.21
64614;BME280;51025;37.772;-122.432;2024-01-30T03:47:34;101312.84;;;20.65;26.27
64614;BME280;51025;37.772;-122.432;2024-01-30T03:50:03;101311.75;;;20.44;26.91
64614;BME280;51025;37.772;-122.432;2024-01-30T03:52:32;101312.19;;;20.55;26.48
64614;BME280;51025;37.772;-122.432;2024-01-30T03:55:00;101308.36;;;20.45;26.62
64614;BME280;51025;37.772;-122.432;2024-01-30T03:57:28;101312.95;;;20.39;26.66
64614;BME280;51025;37.772;-122.432;2024-01-30T03:59:57;101319.16;;;20.83;26.34
64614;BME280;51025;37.772;-122.432;2024-01-30T04:02:25;101317.51;;;20.64;26.74
64614;BME280;51025;37.772;-122.432;2024-01-30T04:04:54;101315.54;;;20.66;26.74
64614;BME280;51025;37.772;-122.432;2024-01-30T04:07:22;101313.60;;;20.23;26.73
64614;BME280;51025;37.772;-122.432;2024-01-30T04:09:50;101314.93;;;20.12;26.84
64614;BME280;51025;37.772;-122.432;2024-01-30T04:12:19;101317.63;;;20.20;26.73
64614;BME280;51025;37.772;-122.432;2024-01-30T04:14:47;101317.89;;;20.17;26.73
64614;BME280;51025;37.772;-122.432;2024-01-30T04:17:15;101319.15;;;19.82;26.91
64614;BME280;51025;37.772;-122.432;2024-01-30T04:19:44;101316.93;;;20.24;26.58
64614;BME280;51025;37.772;-122.432;2024-01-30T04:22:12;101320.45;;;20.08;26.68
64614;BME280;51025;37.772;-122.432;2024-01-30T04:24:40;101326.39;;;19.83;26.87
64614;BME280;51025;37.772;-122.432;2024-01-30T04:27:08;101332.12;;;20.08;26.63
64614;BME280;51025;37.772;-122.432;2024-01-30T04:29:37;101337.44;;;19.85;26.81
64614;BME280;51025;37.772;-122.432;2024-01-30T04:32:06;101342.08;;;19.81;26.86
64614;BME280;51025;37.772;-122.432;2024-01-30T04:34:34;101343.73;;;19.51;26.78
64614;BME280;51025;37.772;-122.432;2024-01-30T04:37:03;101346.46;;;20.01;27.04
64614;BME280;51025;37.772;-122.432;2024-01-30T04:39:33;101350.16;;;20.10;26.64
64614;BME280;51025;37.772;-122.432;2024-01-30T04:42:01;101358.04;;;20.63;26.62
64614;BME280;51025;37.772;-122.432;2024-01-30T04:44:30;101360.96;;;20.82;26.87
64614;BME280;51025;37.772;-122.432;2024-01-30T04:46:59;101368.34;;;20.54;27.70
64614;BME280;51025;37.772;-122.432;2024-01-30T04:49:27;101370.78;;;20.71;27.81
64614;BME280;51025;37.772;-122.432;2024-01-30T04:51:55;101376.11;;;20.76;28.56
64614;BME280;51025;37.772;-122.432;2024-01-30T04:54:23;101382.53;;;20.31;29.29
64614;BME280;51025;37.772;-122.432;2024-01-30T04:56:51;101382.68;;;20.33;29.38
64614;BME280;51025;37.772;-122.432;2024-01-30T04:59:19;101379.26;;;20.44;29.53
64614;BME280;51025;37.772;-122.432;2024-01-30T05:01:48;101371.77;;;20.48;29.41
64614;BME280;51025;37.772;-122.432;2024-01-30T05:04:17;101369.45;;;20.00;29.67
64614;BME280;51025;37.772;-122.432;2024-01-30T05:06:45;101369.69;;;20.86;29.79
64614;BME280;51025;37.772;-122.432;2024-01-30T05:09:14;101367.04;;;20.20;29.77
64614;BME280;51025;37.772;-122.432;2024-01-30T05:11:42;101360.60;;;20.18;29.40
64614;BME280;51025;37.772;-122.432;2024-01-30T05:14:10;101364.67;;;20.52;29.52
64614;BME280;51025;37.772;-122.432;2024-01-30T05:16:38;101363.39;;;20.64;29.62
64614;BME280;51025;37.772;-122.432;2024-01-30T05:19:13;101360.67;;;20.46;29.83
64614;BME280;51025;37.772;-122.432;2024-01-30T05:21:41;101352.82;;;20.54;29.82
64614;BME280;51025;37.772;-122.432;2024-01-30T05:24:10;101339.13;;;20.89;29.85
64614;BME280;51025;37.772;-122.432;2024-01-30T05:26:47;101329.25;;;20.29;30.04
64614;BME280;51025;37.772;-122.432;2024-01-30T05:29:17;101322.66;;;20.92;29.71
64614;BME280;51025;37.772;-122.432;2024-01-30T05:31:46;101319.77;;;20.97;29.87
64614;BME280;51025;37.772;-122.432;2024-01-30T05:34:14;101316.59;;;20.61;30.09
64614;BME280;51025;37.772;-122.432;2024-01-30T05:36:42;101314.28;;;20.51;29.86
64614;BME280;51025;37.772;-122.432;2024-01-30T05:39:11;101312.44;;;20.56;29.76
64614;BME280;51025;37.772;-122.432;2024-01-30T05:41:39;101312.67;;;20.54;29.86
64614;BME280;51025;37.772;-122.432;2024-01-30T05:44:07;101316.15;;;20.78;29.87
64614;BME280;51025;37.772;-122.432;2024-01-30T05:46:36;101327.92;;;20.52;29.79
64614;BME280;51025;37.772;-122.432;2024-01-30T05:49:05;101332.56;;;20.79;29.88
64614;BME280;51025;37.772;-122.432;2024-01-30T05:51:33;101334.14;;;20.39;29.80
64614;BME280;51025;37.772;-122.432;2024-01-30T05:54:01;101338.85;;;20.66;29.94
64614;BME280;51025;37.772;-122.432;2024-01-30T05:56:30;101343.74;;;20.80;29.72
64614;BME280;51025;37.772;-122.432;2024-01-30T05:58:59;101342.27;;;20.32;29.77
64614;BME280;51025;37.772;-122.432;2024-01-30T06:01:27;101344.86;;;19.88;29.85
64614;BME280;51025;37.772;-122.432;2024-01-30T06:03:55;101348.25;;;21.20;29.64
64614;BME280;51025;37.772;-122.432;2024-01-30T06:06:24;101349.64;;;20.67;29.73
64614;BME280;51025;37.772;-122.432;2024-01-30T06:08:52;101345.57;;;21.06;29.30
64614;BME280;51025;37.772;-122.432;2024-01-30T06:11:20;101336.96;;;20.87;29.46
64614;BME280;51025;37.772;-122.432;2024-01-30T06:13:49;101327.42;;;20.50;29.26
64614;BME280;51025;37.772;-122.432;2024-01-30T06:16:17;101321.09;;;20.43;29.41
64614;BME280;51025;37.772;-122.432;2024-01-30T06:18:46;101320.70;;;20.75;29.51
64614;BME280;51025;37.772;-122.432;2024-01-30T06:21:13;101325.37;;;20.72;29.52
64614;BME280;51025;37.772;-122.432;2024-01-30T06:23:47;101324.25;;;20.66;29.45
64614;BME280;51025;37.772;-122.432;2024-01-30T06:26:15;101323.50;;;20.28;29.50
64614;BME280;51025;37.772;-122.432;2024-01-30T06:28:43;101324.61;;;20.08;29.76
64614;BME280;51025;37.772;-122.432;2024-01-30T06:31:11;101330.52;;;19.86;29.82
64614;BME280;51025;37.772;-122.432;2024-01-30T06:33:39;101334.28;;;20.18;29.81
64614;BME280;51025;37.772;-122.432;2024-01-30T06:36:08;101335.99;;;20.85;29.96
64614;BME280;51025;37.772;-122.432;2024-01-30T06:38:37;101338.71;;;20.05;29.99
64614;BME280;51025;37.772;-122.432;2024-01-30T06:41:05;101336.52;;;20.59;29.86
64614;BME280;51025;37.772;-122.432;2024-01-30T06:43:33;101333.00;;;19.92;30.06
64614;BME280;51025;37.772;-122.432;2024-01-30T06:46:02;101328.94;;;20.51;29.93
64614;BME280;51025;37.772;-122.432;2024-01-30T06:48:31;101332.45;;;20.60;29.81
64614;BME280;51025;37.772;-122.432;2024-01-30T06:50:59;101339.81;;;20.68;29.72
64614;BME280;51025;37.772;-122.432;2024-01-30T06:53:27;101345.76;;;20.45;29.91
64614;BME280;51025;37.772;-122.432;2024-01-30T06:55:55;101346.60;;;20.33;30.05
64614;BME280;51025;37.772;-122.432;2024-01-30T06:58:24;101348.87;;;19.94;30.03
64614;BME280;51025;37.772;-122.432;2024-01-30T07:00:52;101348.10;;;20.17;29.85
64614;BME280;51025;37.772;-122.432;2024-01-30T07:03:20;101345.66;;;19.94;30.03
64614;BME280;51025;37.772;-122.432;2024-01-30T07:05:48;101345.34;;;19.71;30.24
64614;BME280;51025;37.772;-122.432;2024-01-30T07:08:16;101343.97;;;20.36;30.21
64614;BME280;51025;37.772;-122.432;2024-01-30T07:10:45;101346.97;;;20.22;30.53
64614;BME280;51025;37.772;-122.432;2024-01-30T07:13:13;101348.83;;;20.25;30.49
64614;BME280;51025;37.772;-122.432;2024-01-30T07:15:41;101347.08;;;19.85;30.51
64614;BME280;51025;37.772;-122.432;2024-01-30T07:18:10;101344.24;;;20.26;30.44
64614;BME280;51025;37.772;-122.432;2024-01-30T07:20:38;101348.57;;;19.83;30.50
64614;BME280;51025;37.772;-122.432;2024-01-30T07:23:08;101356.64;;;19.83;30.49
64614;BME280;51025;37.772;-122.432;2024-01-30T07:25:36;101362.24;;;19.91;30.38
64614;BME280;51025;37.772;-122.432;2024-01-30T07:28:05;101362.46;;;20.35;30.38
64614;BME280;51025;37.772;-122.432;2024-01-30T07:30:33;101362.82;;;19.65;30.60
64614;BME280;51025;37.772;-122.432;2024-01-30T07:33:01;101360.26;;;19.79;30.48
64614;BME280;51025;37.772;-122.432;2024-01-30T07:35:30;101358.11;;;20.35;30.68
64614;BME280;51025;37.772;-122.432;2024-01-30T07:38:04;101351.86;;;20.11;30.55
64614;BME280;51025;37.772;-122.432;2024-01-30T07:40:32;101351.39;;;19.77;30.47
64614;BME280;51025;37.772;-122.432;2024-01-30T07:43:01;101349.35;;;20.26;30.39
64614;BME280;51025;37.772;-122.432;2024-01-30T07:45:29;101350.14;;;20.53;30.43
64614;BME280;51025;37.772;-122.432;2024-01-30T07:47:58;101350.06;;;20.35;30.26
64614;BME280;51025;37.772;-122.432;2024-01-30T07:50:26;101344.85;;;20.07;30.55
64614;BME280;51025;37.772;-122.432;2024-01-30T07:52:56;101340.37;;;19.71;30.48
64614;BME280;51025;37.772;-122.432;2024-01-30T07:55:24;101332.50;;;20.01;30.61
64614;BME280;51025;37.772;-122.432;2024-01-30T07:57:53;101325.02;;;20.11;30.49
64614;BME280;51025;37.772;-122.432;2024-01-30T08:00:22;101324.33;;;20.33;30.61
64614;BME280;51025;37.772;-122.432;2024-01-30T08:02:50;101326.94;;;20.19;30.41
64614;BME280;51025;37.772;-122.432;2024-01-30T08:05:18;101324.06;;;20.02;30.57
64614;BME280;51025;37.772;-122.432;2024-01-30T08:07:46;101318.20;;;20.41;30.54
64614;BME280;51025;37.772;-122.432;2024-01-30T08:10:15;101316.67;;;20.39;30.56
64614;BME280;51025;37.772;-122.432;2024-01-30T08:12:43;101314.29;;;19.97;30.58
64614;BME280;51025;37.772;-122.432;2024-01-30T08:15:13;101316.75;;;19.49;30.68
64614;BME280;51025;37.772;-122.432;2024-01-30T08:17:41;101309.20;;;19.76;30.42
64614;BME280;51025;37.772;-122.432;2024-01-30T08:20:10;101312.59;;;20.29;30.63
64614;BME280;51025;37.772;-122.432;2024-01-30T08:22:39;101313.67;;;19.54;30.64
64614;BME280;51025;37.772;-122.432;2024-01-30T08:25:08;101311.34;;;19.69;30.87
64614;BME280;51025;37.772;-122.432;2024-01-30T08:27:36;101319.19;;;19.57;30.60
64614;BME280;51025;37.772;-122.432;2024-01-30T08:30:05;101322.27;;;20.32;30.63
64614;BME280;51025;37.772;-122.432;2024-01-30T08:32:34;101323.43;;;19.38;30.76
64614;BME280;51025;37.772;-122.432;2024-01-30T08:35:02;101334.05;;;20.38;30.61
64614;BME280;51025;37.772;-122.432;2024-01-30T08:37:35;101341.68;;;20.14;30.79
64614;BME280;51025;37.772;-122.432;2024-01-30T08:40:04;101349.59;;;20.06;30.90
64614;BME280;51025;37.772;-122.432;2024-01-30T08:42:32;101351.01;;;20.18;30.79
64614;BME280;51025;37.772;-122.432;2024-01-30T08:45:01;101352.25;;;20.07;30.58
64614;BME280;51025;37.772;-122.432;2024-01-30T08:47:30;101346.21;;;20.16;30.79
64614;BME280;51025;37.772;-122.432;2024-01-30T08:49:58;101339.67;;;20.21;30.75
64614;BME280;51025;37.772;-122.432;2024-01-30T08:52:26;101328.11;;;20.03;30.90
64614;BME280;51025;37.772;-122.432;2024-01-30T08:54:54;101327.84;;;20.12;30.82
64614;BME280;51025;37.772;-122.432;2024-01-30T08:57:22;101328.56;;;20.10;30.82
64614;BME280;51025;37.772;-122.432;2024-01-30T08:59:50;101329.72;;;20.07;30.86
64614;BME280;51025;37.772;-122.432;2024-01-30T09:02:18;101331.26;;;20.07;30.86
64614;BME280;51025;37.772;-122.432;2024-01-30T09:04:47;101330.06;;;20.08;30.85
64614;BME280;51025;37.772;-122.432;2024-01-30T09:07:15;101330.86;;;19.89;31.06
64614;BME280;51025;37.772;-122.432;2024-01-30T09:09:44;101328.04;;;20.17;30.76
64614;BME280;51025;37.772;-122.432;2024-01-30T09:12:12;101335.88;;;19.86;31.07
64614;BME280;51025;37.772;-122.432;2024-01-30T09:14:40;101333.91;;;19.79;30.80
64614;BME280;51025;37.772;-122.432;2024-01-30T09:17:13;101335.48;;;20.12;30.84
64614;BME280;51025;37.772;-122.432;2024-01-30T09:19:41;101329.33;;;19.96;30.96
64614;BME280;51025;37.772;-122.432;2024-01-30T09:22:10;101322.70;;;19.99;30.96
64614;BME280;51025;37.772;-122.432;2024-01-30T09:24:39;101311.50;;;19.61;31.01
64614;BME280;51025;37.772;-122.432;2024-01-30T09:27:08;101314.04;;;19.53;31.09
64614;BME280;51025;37.772;-122.432;2024-01-30T09:29:36;101312.63;;;19.65;30.99
64614;BME280;51025;37.772;-122.432;2024-01-30T09:32:05;101309.52;;;19.65;30.99
64614;BME280;51025;37.772;-122.432;2024-01-30T09:34:33;101307.58;;;19.65;31.03
64614;BME280;51025;37.772;-122.432;2024-01-30T09:37:02;101300.64;;;19.69;31.02
64614;BME280;51025;37.772;-122.432;2024-01-30T09:39:30;101302.07;;;19.59;31.12
64614;BME280;51025;37.772;-122.432;2024-01-30T09:42:04;101304.20;;;19.82;31.28
64614;BME280;51025;37.772;-122.432;2024-01-30T09:44:35;101303.35;;;19.52;31.24
64614;BME280;51025;37.772;-122.432;2024-01-30T09:47:05;101301.32;;;19.84;31.27
64614;BME280;51025;37.772;-122.432;2024-01-30T09:49:34;101304.39;;;19.40;31.37
64614;BME280;51025;37.772;-122.432;2024-01-30T09:52:04;101304.95;;;20.28;31.30
64614;BME280;51025;37.772;-122.432;2024-01-30T09:54:33;101302.86;;;19.67;31.48
64614;BME280;51025;37.772;-122.432;2024-01-30T09:57:02;101311.74;;;19.38;31.51
64614;BME280;51025;37.772;-122.432;2024-01-30T09:59:30;101314.64;;;19.18;31.77
64614;BME280;51025;37.772;-122.432;2024-01-30T10:01:58;101309.72;;;19.61;31.70
64614;BME280;51025;37.772;-122.432;2024-01-30T10:04:27;101311.50;;;19.71;31.68
64614;BME280;51025;37.772;-122.432;2024-01-30T10:06:55;101312.86;;;19.65;31.67
64614;BME280;51025;37.772;-122.432;2024-01-30T10:09:24;101315.51;;;19.67;31.74
64614;BME280;51025;37.772;-122.432;2024-01-30T10:11:53;101320.25;;;19.58;31.85
64614;BME280;51025;37.772;-122.432;2024-01-30T10:14:21;101325.04;;;19.72;31.75
64614;BME280;51025;37.772;-122.432;2024-01-30T10:16:49;101325.96;;;19.82;31.67
64614;BME280;51025;37.772;-122.432;2024-01-30T10:19:17;101323.85;;;19.43;31.71
64614;BME280;51025;37.772;-122.432;2024-01-30T10:21:46;101324.63;;;19.73;31.81
64614;BME280;51025;37.772;-122.432;2024-01-30T10:24:14;101330.62;;;19.60;31.91
64614;BME280;51025;37.772;-122.432;2024-01-30T10:26:44;101338.76;;;19.76;31.81
64614;BME280;51025;37.772;-122.432;2024-01-30T10:29:13;101344.25;;;19.18;32.05
64614;BME280;51025;37.772;-122.432;2024-01-30T10:31:41;101340.10;;;19.90;31.67
64614;BME280;51025;37.772;-122.432;2024-01-30T10:34:09;101338.15;;;19.39;31.84
64614;BME280;51025;37.772;-122.432;2024-01-30T10:36:40;101336.46;;;19.79;31.81
64614;BME280;51025;37.772;-122.432;2024-01-30T10:39:09;101333.62;;;19.77;31.81
64614;BME280;51025;37.772;-122.432;2024-01-30T10:41:43;101324.82;;;19.62;31.98
64614;BME280;51025;37.772;-122.432;2024-01-30T10:44:11;101326.87;;;19.54;32.11
64614;BME280;51025;37.772;-122.432;2024-01-30T10:46:43;101332.07;;;19.55;32.07
64614;BME280;51025;37.772;-122.432;2024-01-30T10:49:14;101339.88;;;19.61;32.02
64614;BME280;51025;37.772;-122.432;2024-01-30T10:51:44;101342.78;;;19.40;32.21
64614;BME280;51025;37.772;-122.432;2024-01-30T10:54:13;101347.04;;;19.58;32.09
64614;BME280;51025;37.772;-122.432;2024-01-30T10:56:43;101343.54;;;19.52;32.16
64614;BME280;51025;37.772;-122.432;2024-01-30T10:59:12;101345.97;;;19.42;31.87
64614;BME280;51025;37.772;-122.432;2024-01-30T11:01:41;101343.10;;;19.57;32.09
64614;BME280;51025;37.772;-122.432;2024-01-30T11:04:10;101346.30;;;19.47;32.20
64614;BME280;51025;37.772;-122.432;2024-01-30T11:06:42;101350.20;;;19.46;32.22
64614;BME280;51025;37.772;-122.432;2024-01-30T11:09:11;101353.31;;;19.51;32.14
64614;BME280;51025;37.772;-122.432;2024-01-30T11:11:58;101352.24;;;19.62;32.01
64614;BME280;51025;37.772;-122.432;2024-01-30T11:14:27;101346.25;;;19.48;32.13
64614;BME280;51025;37.772;-122.432;2024-01-30T11:16:59;101341.63;;;19.46;32.17
64614;BME280;51025;37.772;-122.432;2024-01-30T11:19:30;101336.89;;;19.44;32.22
64614;BME280;51025;37.772;-122.432;2024-01-30T11:21:59;101336.26;;;19.34;32.28
64614;BME280;51025;37.772;-122.432;2024-01-30T11:24:28;101341.60;;;19.43;32.21
64614;BME280;51025;37.772;-122.432;2024-01-30T11:26:57;101335.62;;;19.62;32.02
64614;BME280;51025;37.772;-122.432;2024-01-30T11:29:26;101330.74;;;19.40;32.22
64614;BME280;51025;37.772;-122.432;2024-01-30T11:31:55;101327.48;;;19.45;32.17
64614;BME280;51025;37.772;-122.432;2024-01-30T11:34:24;101325.88;;;19.37;32.25
64614;BME280;51025;37.772;-122.432;2024-01-30T11:36:55;101325.30;;;19.87;32.15
64614;BME280;51025;37.772;-122.432;2024-01-30T11:39:25;101324.49;;;19.30;32.32
64614;BME280;51025;37.772;-122.432;2024-01-30T11:41:54;101315.34;;;19.62;31.98
64614;BME280;51025;37.772;-122.432;2024-01-30T11:44:22;101310.38;;;20.06;31.98
64614;BME280;51025;37.772;-122.432;2024-01-30T11:46:52;101304.22;;;19.53;32.06
64614;BME280;51025;37.772;-122.432;2024-01-30T11:49:20;101305.72;;;19.51;32.10
64614;BME280;51025;37.772;-122.432;2024-01-30T11:51:49;101304.44;;;19.41;32.20
64614;BME280;51025;37.772;-122.432;2024-01-30T11:54:17;101295.09;;;19.15;32.43
64614;BME280;51025;37.772;-122.432;2024-01-30T11:56:45;101287.38;;;18.93;32.32
64614;BME280;51025;37.772;-122.432;2024-01-30T11:59:14;101281.55;;;19.34;32.26
64614;BME280;51025;37.772;-122.432;2024-01-30T12:01:42;101273.55;;;19.30;32.27
64614;BME280;51025;37.772;-122.432;2024-01-30T12:04:10;101269.79;;;19.18;32.37
64614;BME280;51025;37.772;-122.432;2024-01-30T12:06:39;101265.42;;;19.06;32.49
64614;BME280;51025;37.772;-122.432;2024-01-30T12:09:09;101259.98;;;18.96;32.53
64614;BME280;51025;37.772;-122.432;2024-01-30T12:11:44;101257.34;;;19.08;32.14
64614;BME280;51025;37.772;-122.432;2024-01-30T12:14:13;101250.86;;;19.17;32.38
64614;BME280;51025;37.772;-122.432;2024-01-30T12:16:42;101242.75;;;19.14;32.36
64614;BME280;51025;37.772;-122.432;2024-01-30T12:19:10;101235.21;;;19.26;32.29
64614;BME280;51025;37.772;-122.432;2024-01-30T12:21:39;101228.67;;;19.35;32.13
64614;BME280;51025;37.772;-122.432;2024-01-30T12:24:07;101232.41;;;19.26;32.23
64614;BME280;51025;37.772;-122.432;2024-01-30T12:26:35;101234.93;;;18.82;32.31